sensor_id;sensor_type;location;lat;lon;timestamp;temperature;humidity
3980;DHT22;2004;52.452;13.120;2023-06-19T00:05:06;18.30;99.90
3980;DHT22;2004;52.452;13.120;2023-06-19T00:12:57;18.20;99.90
3980;DHT22;2004;52.452;13.120;2023-06-19T00:20:48;18.20;99.90
3980;DHT22;2004;52.452;13.120;2023-06-19T00:28:38;18.20;99.90
3980;DHT22;2004;52.452;13.120;2023-06-19T00:36:29;18.20;99.90
3980;DHT22;2004;52.452;13.120;2023-06-19T00:44:19;18.20;99.90
3980;DHT22;2004;52.452;13.120;2023-06-19T00:52:11;18.20;99.90
3980;DHT22;2004;52.452;13.120;2023-06-19T01:00:10;18.20;99.90
3980;DHT22;2004;52.452;13.120;2023-06-19T01:08:43;18.10;99.90
3980;DHT22;2004;52.452;13.120;2023-06-19T01:16:34;18.10;99.90
3980;DHT22;2004;52.452;13.120;2023-06-19T01:24:25;18.00;99.90
3980;DHT22;2004;52.452;13.120;2023-06-19T01:32:20;18.00;99.90
3980;DHT22;2004;52.452;13.120;2023-06-19T01:40:14;18.00;99.90
3980;DHT22;2004;52.452;13.120;2023-06-19T01:48:06;18.00;99.90
3980;DHT22;2004;52.452;13.120;2023-06-19T01:55:57;18.00;99.90
3980;DHT22;2004;52.452;13.120;2023-06-19T02:03:47;18.00;99.90
3980;DHT22;2004;52.452;13.120;2023-06-19T02:11:37;18.00;99.90
3980;DHT22;2004;52.452;13.120;2023-06-19T02:19:28;18.10;99.90
3980;DHT22;2004;52.452;13.120;2023-06-19T02:27:18;18.10;99.90
3980;DHT22;2004;52.452;13.120;2023-06-19T02:35:11;18.00;99.90
3980;DHT22;2004;52.452;13.120;2023-06-19T02:43:02;18.00;99.90
3980;DHT22;2004;52.452;13.120;2023-06-19T02:50:52;18.00;99.90
3980;DHT22;2004;52.452;13.120;2023-06-19T02:58:44;18.00;99.90
3980;DHT22;2004;52.452;13.120;2023-06-19T03:06:34;18.00;99.90
3980;DHT22;2004;52.452;13.120;2023-06-19T03:14:30;18.00;99.90
3980;DHT22;2004;52.452;13.120;2023-06-19T03:22:20;18.10;99.90
3980;DHT22;2004;52.452;13.120;2023-06-19T03:30:12;18.10;99.90
3980;DHT22;2004;52.452;13.120;2023-06-19T03:38:03;18.20;99.90
3980;DHT22;2004;52.452;13.120;2023-06-19T03:45:54;18.20;99.90
3980;DHT22;2004;52.452;13.120;2023-06-19T03:53:45;18.30;99.90
3980;DHT22;2004;52.452;13.120;2023-06-19T04:01:35;18.40;99.90
3980;DHT22;2004;52.452;13.120;2023-06-19T04:09:26;18.40;99.90
3980;DHT22;2004;52.452;13.120;2023-06-19T04:17:17;18.40;99.90
3980;DHT22;2004;52.452;13.120;2023-06-19T04:25:08;18.40;99.90
3980;DHT22;2004;52.452;13.120;2023-06-19T04:33:00;18.50;99.90
3980;DHT22;2004;52.452;13.120;2023-06-19T04:40:51;18.50;99.90
3980;DHT22;2004;52.452;13.120;2023-06-19T04:48:44;18.50;99.90
3980;DHT22;2004;52.452;13.120;2023-06-19T04:56:34;18.60;99.90
3980;DHT22;2004;52.452;13.120;2023-06-19T05:04:25;18.60;99.90
3980;DHT22;2004;52.452;13.120;2023-06-19T05:12:15;18.60;99.90
3980;DHT22;2004;52.452;13.120;2023-06-19T05:20:06;18.70;99.90
3980;DHT22;2004;52.452;13.120;2023-06-19T05:27:59;18.70;99.90
3980;DHT22;2004;52.452;13.120;2023-06-19T05:35:50;18.80;99.90
3980;DHT22;2004;52.452;13.120;2023-06-19T05:43:44;18.80;99.90
3980;DHT22;2004;52.452;13.120;2023-06-19T05:51:34;18.80;99.90
3980;DHT22;2004;52.452;13.120;2023-06-19T05:59:25;19.00;99.90
3980;DHT22;2004;52.452;13.120;2023-06-19T06:07:15;19.00;99.90
3980;DHT22;2004;52.452;13.120;2023-06-19T06:15:06;19.10;99.90
3980;DHT22;2004;52.452;13.120;2023-06-19T06:22:57;19.20;99.90
3980;DHT22;2004;52.452;13.120;2023-06-19T06:30:47;19.30;99.90
3980;DHT22;2004;52.452;13.120;2023-06-19T06:38:38;19.40;99.90
3980;DHT22;2004;52.452;13.120;2023-06-19T06:46:28;19.50;99.90
3980;DHT22;2004;52.452;13.120;2023-06-19T06:54:19;19.70;99.90
3980;DHT22;2004;52.452;13.120;2023-06-19T07:02:09;19.80;99.90
3980;DHT22;2004;52.452;13.120;2023-06-19T07:10:00;19.90;99.90
3980;DHT22;2004;52.452;13.120;2023-06-19T07:17:50;20.00;99.90
3980;DHT22;2004;52.452;13.120;2023-06-19T07:25:41;20.20;99.90
3980;DHT22;2004;52.452;13.120;2023-06-19T07:33:31;20.40;99.90
3980;DHT22;2004;52.452;13.120;2023-06-19T07:41:22;20.50;99.90
3980;DHT22;2004;52.452;13.120;2023-06-19T07:49:12;20.70;99.90
3980;DHT22;2004;52.452;13.120;2023-06-19T07:57:03;20.80;99.90
3980;DHT22;2004;52.452;13.120;2023-06-19T08:04:53;20.90;99.90
3980;DHT22;2004;52.452;13.120;2023-06-19T08:12:44;20.90;99.90
3980;DHT22;2004;52.452;13.120;2023-06-19T08:20:36;20.90;99.90
3980;DHT22;2004;52.452;13.120;2023-06-19T08:28:27;21.00;99.90
3980;DHT22;2004;52.452;13.120;2023-06-19T08:36:17;21.00;99.90
3980;DHT22;2004;52.452;13.120;2023-06-19T08:44:08;21.20;99.90
3980;DHT22;2004;52.452;13.120;2023-06-19T08:52:01;21.40;99.90
3980;DHT22;2004;52.452;13.120;2023-06-19T08:59:51;21.50;99.90
3980;DHT22;2004;52.452;13.120;2023-06-19T09:07:46;21.70;99.90
3980;DHT22;2004;52.452;13.120;2023-06-19T09:15:43;21.70;99.90
3980;DHT22;2004;52.452;13.120;2023-06-19T09:23:34;21.80;99.90
3980;DHT22;2004;52.452;13.120;2023-06-19T09:31:32;21.80;99.90
3980;DHT22;2004;52.452;13.120;2023-06-19T09:39:26;22.00;99.90
3980;DHT22;2004;52.452;13.120;2023-06-19T09:47:20;22.10;99.90
3980;DHT22;2004;52.452;13.120;2023-06-19T09:55:13;22.20;99.90
3980;DHT22;2004;52.452;13.120;2023-06-19T10:03:11;22.20;99.90
3980;DHT22;2004;52.452;13.120;2023-06-19T10:11:02;22.30;99.90
3980;DHT22;2004;52.452;13.120;2023-06-19T10:18:54;22.40;99.90
3980;DHT22;2004;52.452;13.120;2023-06-19T10:26:55;22.50;99.90
3980;DHT22;2004;52.452;13.120;2023-06-19T10:34:47;22.70;99.90
3980;DHT22;2004;52.452;13.120;2023-06-19T10:42:41;23.00;99.90
3980;DHT22;2004;52.452;13.120;2023-06-19T10:50:37;23.10;99.90
3980;DHT22;2004;52.452;13.120;2023-06-19T10:58:29;23.20;99.90
3980;DHT22;2004;52.452;13.120;2023-06-19T11:06:22;23.20;99.90
3980;DHT22;2004;52.452;13.120;2023-06-19T11:14:12;23.40;99.90
3980;DHT22;2004;52.452;13.120;2023-06-19T11:22:02;23.50;99.90
3980;DHT22;2004;52.452;13.120;2023-06-19T11:29:55;23.80;99.90
3980;DHT22;2004;52.452;13.120;2023-06-19T11:37:46;24.50;99.90
3980;DHT22;2004;52.452;13.120;2023-06-19T11:45:48;24.60;99.40
3980;DHT22;2004;52.452;13.120;2023-06-19T11:53:37;24.80;99.20
3980;DHT22;2004;52.452;13.120;2023-06-19T12:01:26;25.10;97.90
3980;DHT22;2004;52.452;13.120;2023-06-19T12:09:15;25.30;96.80
3980;DHT22;2004;52.452;13.120;2023-06-19T12:17:04;25.60;94.10
3980;DHT22;2004;52.452;13.120;2023-06-19T12:24:53;26.00;91.40
3980;DHT22;2004;52.452;13.120;2023-06-19T12:32:42;26.40;89.30
3980;DHT22;2004;52.452;13.120;2023-06-19T12:40:32;26.60;88.10
3980;DHT22;2004;52.452;13.120;2023-06-19T12:48:21;26.60;87.80
3980;DHT22;2004;52.452;13.120;2023-06-19T12:56:10;26.80;85.40
3980;DHT22;2004;52.452;13.120;2023-06-19T13:03:59;27.10;84.30
3980;DHT22;2004;52.452;13.120;2023-06-19T13:11:48;27.10;82.40
3980;DHT22;2004;52.452;13.120;2023-06-19T13:19:38;27.30;79.50
3980;DHT22;2004;52.452;13.120;2023-06-19T13:27:27;27.40;79.30
3980;DHT22;2004;52.452;13.120;2023-06-19T13:35:16;27.70;74.40
3980;DHT22;2004;52.452;13.120;2023-06-19T13:43:05;27.80;73.70
3980;DHT22;2004;52.452;13.120;2023-06-19T13:50:55;27.70;72.70
3980;DHT22;2004;52.452;13.120;2023-06-19T13:58:44;27.60;74.10
3980;DHT22;2004;52.452;13.120;2023-06-19T14:06:34;27.60;72.70
3980;DHT22;2004;52.452;13.120;2023-06-19T14:14:23;27.50;74.70
3980;DHT22;2004;52.452;13.120;2023-06-19T14:22:12;27.40;71.50
3980;DHT22;2004;52.452;13.120;2023-06-19T14:30:01;27.30;70.20
3980;DHT22;2004;52.452;13.120;2023-06-19T14:37:50;27.40;70.60
3980;DHT22;2004;52.452;13.120;2023-06-19T14:45:38;27.70;72.00
3980;DHT22;2004;52.452;13.120;2023-06-19T14:53:28;27.80;70.40
3980;DHT22;2004;52.452;13.120;2023-06-19T15:01:17;28.00;69.10
3980;DHT22;2004;52.452;13.120;2023-06-19T15:09:08;27.80;68.50
3980;DHT22;2004;52.452;13.120;2023-06-19T15:16:57;27.70;66.40
3980;DHT22;2004;52.452;13.120;2023-06-19T15:24:46;27.50;67.10
3980;DHT22;2004;52.452;13.120;2023-06-19T15:32:36;27.50;66.30
3980;DHT22;2004;52.452;13.120;2023-06-19T15:40:25;27.40;69.50
3980;DHT22;2004;52.452;13.120;2023-06-19T15:48:16;27.40;66.50
3980;DHT22;2004;52.452;13.120;2023-06-19T15:56:05;27.50;66.50
3980;DHT22;2004;52.452;13.120;2023-06-19T16:03:54;27.50;68.80
3980;DHT22;2004;52.452;13.120;2023-06-19T16:11:44;27.40;67.40
3980;DHT22;2004;52.452;13.120;2023-06-19T16:19:35;27.20;67.00
3980;DHT22;2004;52.452;13.120;2023-06-19T16:27:24;27.10;68.40
3980;DHT22;2004;52.452;13.120;2023-06-19T16:35:13;27.10;66.50
3980;DHT22;2004;52.452;13.120;2023-06-19T16:43:03;27.00;67.90
3980;DHT22;2004;52.452;13.120;2023-06-19T16:50:52;26.80;68.00
3980;DHT22;2004;52.452;13.120;2023-06-19T16:58:41;26.70;68.50
3980;DHT22;2004;52.452;13.120;2023-06-19T17:06:30;26.60;69.50
3980;DHT22;2004;52.452;13.120;2023-06-19T17:14:19;26.50;72.80
3980;DHT22;2004;52.452;13.120;2023-06-19T17:22:09;26.40;71.20
3980;DHT22;2004;52.452;13.120;2023-06-19T17:29:58;26.30;73.10
3980;DHT22;2004;52.452;13.120;2023-06-19T17:37:47;26.20;73.70
3980;DHT22;2004;52.452;13.120;2023-06-19T17:48:50;26.10;73.00
3980;DHT22;2004;52.452;13.120;2023-06-19T17:56:39;25.90;76.00
3980;DHT22;2004;52.452;13.120;2023-06-19T18:10:13;25.80;75.70
3980;DHT22;2004;52.452;13.120;2023-06-19T18:18:02;25.60;75.20
3980;DHT22;2004;52.452;13.120;2023-06-19T18:25:51;25.50;75.80
3980;DHT22;2004;52.452;13.120;2023-06-19T18:41:20;25.30;76.70
3980;DHT22;2004;52.452;13.120;2023-06-19T18:49:09;25.20;76.80
3980;DHT22;2004;52.452;13.120;2023-06-19T18:56:58;25.10;77.20
3980;DHT22;2004;52.452;13.120;2023-06-19T19:04:47;24.90;79.40
3980;DHT22;2004;52.452;13.120;2023-06-19T19:12:37;24.80;79.80
3980;DHT22;2004;52.452;13.120;2023-06-19T19:20:26;24.60;80.20
3980;DHT22;2004;52.452;13.120;2023-06-19T19:28:15;24.40;82.20
3980;DHT22;2004;52.452;13.120;2023-06-19T19:36:04;24.20;84.20
3980;DHT22;2004;52.452;13.120;2023-06-19T19:43:55;24.00;84.80
3980;DHT22;2004;52.452;13.120;2023-06-19T19:51:44;23.80;85.70
3980;DHT22;2004;52.452;13.120;2023-06-19T19:59:33;23.60;87.20
3980;DHT22;2004;52.452;13.120;2023-06-19T20:07:22;23.50;89.40
3980;DHT22;2004;52.452;13.120;2023-06-19T20:15:12;23.30;90.20
3980;DHT22;2004;52.452;13.120;2023-06-19T20:38:14;22.80;91.30
3980;DHT22;2004;52.452;13.120;2023-06-19T20:46:03;22.70;92.20
3980;DHT22;2004;52.452;13.120;2023-06-19T20:53:54;22.60;92.80
3980;DHT22;2004;52.452;13.120;2023-06-19T21:01:46;22.50;93.90
3980;DHT22;2004;52.452;13.120;2023-06-19T21:09:38;22.40;94.80
3980;DHT22;2004;52.452;13.120;2023-06-19T21:17:30;22.20;95.60
3980;DHT22;2004;52.452;13.120;2023-06-19T21:25:20;22.20;97.10
3980;DHT22;2004;52.452;13.120;2023-06-19T21:33:11;22.00;97.80
3980;DHT22;2004;52.452;13.120;2023-06-19T21:41:02;21.90;99.60
3980;DHT22;2004;52.452;13.120;2023-06-19T21:48:53;21.80;99.90
3980;DHT22;2004;52.452;13.120;2023-06-19T21:56:43;21.70;99.90
3980;DHT22;2004;52.452;13.120;2023-06-19T22:04:34;21.60;99.90
3980;DHT22;2004;52.452;13.120;2023-06-19T22:12:25;21.50;99.90
3980;DHT22;2004;52.452;13.120;2023-06-19T22:20:16;21.50;99.90
3980;DHT22;2004;52.452;13.120;2023-06-19T22:28:07;21.40;99.90
3980;DHT22;2004;52.452;13.120;2023-06-19T22:35:58;21.30;99.90
3980;DHT22;2004;52.452;13.120;2023-06-19T22:43:49;21.20;99.90
3980;DHT22;2004;52.452;13.120;2023-06-19T22:51:40;21.20;99.90
3980;DHT22;2004;52.452;13.120;2023-06-19T22:59:31;21.10;99.90
3980;DHT22;2004;52.452;13.120;2023-06-19T23:07:22;21.00;99.90
3980;DHT22;2004;52.452;13.120;2023-06-19T23:15:13;20.90;99.90
3980;DHT22;2004;52.452;13.120;2023-06-19T23:23:04;20.80;99.90
3980;DHT22;2004;52.452;13.120;2023-06-19T23:30:55;20.70;99.90
3980;DHT22;2004;52.452;13.120;2023-06-19T23:38:45;20.60;99.90
3980;DHT22;2004;52.452;13.120;2023-06-19T23:46:38;20.40;99.90
3980;DHT22;2004;52.452;13.120;2023-06-19T23:54:29;20.40;99.90
